sensor_id;sensor_type;location;lat;lon;timestamp;P1;durP1;ratioP1;P2;durP2;ratioP2
13291;SDS011;6714;53.056;8.690;2023-12-22T00:02:40;7.63;;;2.10;;
13291;SDS011;6714;53.056;8.690;2023-12-22T00:05:23;11.33;;;2.80;;
13291;SDS011;6714;53.056;8.690;2023-12-22T00:08:06;9.30;;;2.30;;
13291;SDS011;6714;53.056;8.690;2023-12-22T00:10:50;7.57;;;2.23;;
13291;SDS011;6714;53.056;8.690;2023-12-22T00:13:32;7.77;;;1.90;;
13291;SDS011;6714;53.056;8.690;2023-12-22T00:16:15;7.20;;;2.20;;
13291;SDS011;6714;53.056;8.690;2023-12-22T00:18:57;9.37;;;2.70;;
13291;SDS011;6714;53.056;8.690;2023-12-22T00:21:39;7.13;;;1.63;;
13291;SDS011;6714;53.056;8.690;2023-12-22T00:24:22;6.50;;;1.87;;
13291;SDS011;6714;53.056;8.690;2023-12-22T00:27:05;6.40;;;1.60;;
13291;SDS011;6714;53.056;8.690;2023-12-22T00:29:48;7.60;;;2.10;;
13291;SDS011;6714;53.056;8.690;2023-12-22T00:32:31;9.33;;;2.03;;
13291;SDS011;6714;53.056;8.690;2023-12-22T00:35:13;10.43;;;1.87;;
13291;SDS011;6714;53.056;8.690;2023-12-22T00:37:56;7.60;;;1.67;;
13291;SDS011;6714;53.056;8.690;2023-12-22T00:40:38;3.90;;;1.40;;
13291;SDS011;6714;53.056;8.690;2023-12-22T00:43:22;7.03;;;2.40;;
13291;SDS011;6714;53.056;8.690;2023-12-22T00:46:05;6.30;;;1.80;;
13291;SDS011;6714;53.056;8.690;2023-12-22T00:48:47;4.77;;;1.60;;
13291;SDS011;6714;53.056;8.690;2023-12-22T00:51:29;3.77;;;1.60;;
13291;SDS011;6714;53.056;8.690;2023-12-22T00:54:12;5.23;;;1.80;;
13291;SDS011;6714;53.056;8.690;2023-12-22T00:56:54;7.53;;;2.13;;
13291;SDS011;6714;53.056;8.690;2023-12-22T00:59:38;8.20;;;1.80;;
13291;SDS011;6714;53.056;8.690;2023-12-22T01:02:25;8.53;;;2.10;;
13291;SDS011;6714;53.056;8.690;2023-12-22T01:05:07;5.83;;;1.40;;
13291;SDS011;6714;53.056;8.690;2023-12-22T01:07:50;5.53;;;1.60;;
13291;SDS011;6714;53.056;8.690;2023-12-22T01:10:32;4.67;;;1.77;;
13291;SDS011;6714;53.056;8.690;2023-12-22T01:13:15;3.10;;;1.53;;
13291;SDS011;6714;53.056;8.690;2023-12-22T01:15:59;5.73;;;2.13;;
13291;SDS011;6714;53.056;8.690;2023-12-22T01:18:41;7.40;;;1.60;;
13291;SDS011;6714;53.056;8.690;2023-12-22T01:21:24;6.87;;;1.90;;
13291;SDS011;6714;53.056;8.690;2023-12-22T01:24:06;9.90;;;2.10;;
13291;SDS011;6714;53.056;8.690;2023-12-22T01:26:50;10.13;;;1.60;;
13291;SDS011;6714;53.056;8.690;2023-12-22T01:29:33;8.10;;;1.87;;
13291;SDS011;6714;53.056;8.690;2023-12-22T01:32:17;5.47;;;2.20;;
13291;SDS011;6714;53.056;8.690;2023-12-22T01:34:59;5.93;;;1.70;;
13291;SDS011;6714;53.056;8.690;2023-12-22T01:37:47;5.53;;;1.83;;
13291;SDS011;6714;53.056;8.690;2023-12-22T01:40:29;11.87;;;2.53;;
13291;SDS011;6714;53.056;8.690;2023-12-22T01:43:13;9.43;;;2.00;;
13291;SDS011;6714;53.056;8.690;2023-12-22T01:45:57;6.50;;;1.70;;
13291;SDS011;6714;53.056;8.690;2023-12-22T01:48:42;6.87;;;2.00;;
13291;SDS011;6714;53.056;8.690;2023-12-22T01:51:24;7.83;;;1.93;;
13291;SDS011;6714;53.056;8.690;2023-12-22T01:54:07;7.20;;;1.87;;
13291;SDS011;6714;53.056;8.690;2023-12-22T01:56:49;7.07;;;2.00;;
13291;SDS011;6714;53.056;8.690;2023-12-22T01:59:32;6.50;;;2.10;;
13291;SDS011;6714;53.056;8.690;2023-12-22T02:02:15;4.27;;;1.83;;
13291;SDS011;6714;53.056;8.690;2023-12-22T02:05:00;7.17;;;1.90;;
13291;SDS011;6714;53.056;8.690;2023-12-22T02:07:43;8.60;;;1.23;;
13291;SDS011;6714;53.056;8.690;2023-12-22T02:10:25;5.77;;;1.60;;
13291;SDS011;6714;53.056;8.690;2023-12-22T02:13:08;4.70;;;1.47;;
13291;SDS011;6714;53.056;8.690;2023-12-22T02:15:51;2.47;;;1.00;;
13291;SDS011;6714;53.056;8.690;2023-12-22T02:18:37;5.93;;;1.33;;
13291;SDS011;6714;53.056;8.690;2023-12-22T02:21:22;4.07;;;1.23;;
13291;SDS011;6714;53.056;8.690;2023-12-22T02:24:07;3.77;;;1.30;;
13291;SDS011;6714;53.056;8.690;2023-12-22T02:26:49;3.37;;;1.40;;
13291;SDS011;6714;53.056;8.690;2023-12-22T02:29:37;5.23;;;1.50;;
13291;SDS011;6714;53.056;8.690;2023-12-22T02:32:36;4.00;;;1.50;;
13291;SDS011;6714;53.056;8.690;2023-12-22T02:35:21;4.50;;;1.50;;
13291;SDS011;6714;53.056;8.690;2023-12-22T02:38:05;4.43;;;1.53;;
13291;SDS011;6714;53.056;8.690;2023-12-22T02:40:50;6.63;;;1.60;;
13291;SDS011;6714;53.056;8.690;2023-12-22T02:43:33;5.70;;;1.97;;
13291;SDS011;6714;53.056;8.690;2023-12-22T02:46:15;5.97;;;1.73;;
13291;SDS011;6714;53.056;8.690;2023-12-22T02:48:58;6.57;;;1.97;;
13291;SDS011;6714;53.056;8.690;2023-12-22T02:51:40;8.77;;;1.80;;
13291;SDS011;6714;53.056;8.690;2023-12-22T02:54:23;6.97;;;1.87;;
13291;SDS011;6714;53.056;8.690;2023-12-22T02:57:09;3.77;;;1.57;;
13291;SDS011;6714;53.056;8.690;2023-12-22T02:59:52;6.07;;;1.60;;
13291;SDS011;6714;53.056;8.690;2023-12-22T03:02:34;5.90;;;1.80;;
13291;SDS011;6714;53.056;8.690;2023-12-22T03:05:18;5.53;;;1.93;;
13291;SDS011;6714;53.056;8.690;2023-12-22T03:08:00;7.03;;;1.87;;
13291;SDS011;6714;53.056;8.690;2023-12-22T03:10:42;5.77;;;2.17;;
13291;SDS011;6714;53.056;8.690;2023-12-22T03:13:26;11.23;;;2.17;;
13291;SDS011;6714;53.056;8.690;2023-12-22T03:16:09;5.23;;;2.27;;
13291;SDS011;6714;53.056;8.690;2023-12-22T03:18:51;6.37;;;2.20;;
13291;SDS011;6714;53.056;8.690;2023-12-22T03:21:34;7.00;;;1.83;;
13291;SDS011;6714;53.056;8.690;2023-12-22T03:24:16;7.97;;;2.17;;
13291;SDS011;6714;53.056;8.690;2023-12-22T03:26:59;5.37;;;1.80;;
13291;SDS011;6714;53.056;8.690;2023-12-22T03:29:43;10.57;;;2.30;;
13291;SDS011;6714;53.056;8.690;2023-12-22T03:32:25;5.20;;;1.63;;
13291;SDS011;6714;53.056;8.690;2023-12-22T03:35:08;8.13;;;2.27;;
13291;SDS011;6714;53.056;8.690;2023-12-22T03:37:50;6.97;;;2.13;;
13291;SDS011;6714;53.056;8.690;2023-12-22T03:40:33;5.53;;;2.03;;
13291;SDS011;6714;53.056;8.690;2023-12-22T03:43:15;4.53;;;1.40;;
13291;SDS011;6714;53.056;8.690;2023-12-22T03:45:59;10.43;;;2.07;;
13291;SDS011;6714;53.056;8.690;2023-12-22T03:48:43;5.80;;;1.67;;
13291;SDS011;6714;53.056;8.690;2023-12-22T03:51:26;8.37;;;2.30;;
13291;SDS011;6714;53.056;8.690;2023-12-22T03:54:08;8.97;;;1.87;;
13291;SDS011;6714;53.056;8.690;2023-12-22T03:56:51;9.40;;;2.00;;
13291;SDS011;6714;53.056;8.690;2023-12-22T03:59:34;9.20;;;2.30;;
13291;SDS011;6714;53.056;8.690;2023-12-22T04:02:18;5.43;;;1.40;;
13291;SDS011;6714;53.056;8.690;2023-12-22T04:05:00;9.77;;;2.07;;
13291;SDS011;6714;53.056;8.690;2023-12-22T04:07:43;8.63;;;2.03;;
13291;SDS011;6714;53.056;8.690;2023-12-22T04:10:25;4.43;;;1.33;;
13291;SDS011;6714;53.056;8.690;2023-12-22T04:13:08;5.43;;;1.70;;
13291;SDS011;6714;53.056;8.690;2023-12-22T04:15:50;9.87;;;1.80;;
13291;SDS011;6714;53.056;8.690;2023-12-22T04:18:34;9.37;;;1.87;;
13291;SDS011;6714;53.056;8.690;2023-12-22T04:21:16;5.83;;;1.83;;
13291;SDS011;6714;53.056;8.690;2023-12-22T04:23:58;9.97;;;2.63;;
13291;SDS011;6714;53.056;8.690;2023-12-22T04:26:41;6.80;;;1.90;;
13291;SDS011;6714;53.056;8.690;2023-12-22T04:29:23;8.00;;;2.17;;
13291;SDS011;6714;53.056;8.690;2023-12-22T04:32:06;17.67;;;4.17;;
13291;SDS011;6714;53.056;8.690;2023-12-22T04:34:50;7.57;;;1.80;;
13291;SDS011;6714;53.056;8.690;2023-12-22T04:37:32;14.63;;;2.20;;
13291;SDS011;6714;53.056;8.690;2023-12-22T04:40:14;15.87;;;3.10;;
13291;SDS011;6714;53.056;8.690;2023-12-22T04:42:57;7.77;;;3.10;;
13291;SDS011;6714;53.056;8.690;2023-12-22T04:45:39;16.77;;;2.60;;
13291;SDS011;6714;53.056;8.690;2023-12-22T04:48:22;11.13;;;3.13;;
13291;SDS011;6714;53.056;8.690;2023-12-22T04:51:06;10.73;;;2.70;;
13291;SDS011;6714;53.056;8.690;2023-12-22T04:53:48;9.47;;;2.07;;
13291;SDS011;6714;53.056;8.690;2023-12-22T04:56:31;7.77;;;2.33;;
13291;SDS011;6714;53.056;8.690;2023-12-22T04:59:13;12.73;;;2.60;;
13291;SDS011;6714;53.056;8.690;2023-12-22T05:01:56;10.87;;;2.57;;
13291;SDS011;6714;53.056;8.690;2023-12-22T05:04:38;9.67;;;2.90;;
13291;SDS011;6714;53.056;8.690;2023-12-22T05:07:22;11.87;;;3.23;;
13291;SDS011;6714;53.056;8.690;2023-12-22T05:10:05;7.70;;;2.40;;
13291;SDS011;6714;53.056;8.690;2023-12-22T05:12:48;15.90;;;3.30;;
13291;SDS011;6714;53.056;8.690;2023-12-22T05:15:30;11.47;;;3.50;;
13291;SDS011;6714;53.056;8.690;2023-12-22T05:18:13;4.40;;;1.43;;
13291;SDS011;6714;53.056;8.690;2023-12-22T05:20:55;10.03;;;2.40;;
13291;SDS011;6714;53.056;8.690;2023-12-22T05:23:39;7.30;;;1.40;;
13291;SDS011;6714;53.056;8.690;2023-12-22T05:26:21;12.00;;;2.30;;
13291;SDS011;6714;53.056;8.690;2023-12-22T05:29:04;4.83;;;1.67;;
13291;SDS011;6714;53.056;8.690;2023-12-22T05:31:49;7.93;;;1.83;;
13291;SDS011;6714;53.056;8.690;2023-12-22T05:34:32;4.47;;;1.50;;
13291;SDS011;6714;53.056;8.690;2023-12-22T05:37:14;11.73;;;2.60;;
13291;SDS011;6714;53.056;8.690;2023-12-22T05:39:58;9.10;;;1.83;;
13291;SDS011;6714;53.056;8.690;2023-12-22T05:42:41;7.47;;;2.60;;
13291;SDS011;6714;53.056;8.690;2023-12-22T05:45:24;6.83;;;1.67;;
13291;SDS011;6714;53.056;8.690;2023-12-22T05:48:07;4.03;;;1.70;;
13291;SDS011;6714;53.056;8.690;2023-12-22T05:50:49;5.50;;;1.57;;
13291;SDS011;6714;53.056;8.690;2023-12-22T05:53:32;9.70;;;1.40;;
13291;SDS011;6714;53.056;8.690;2023-12-22T05:56:19;3.33;;;1.03;;
13291;SDS011;6714;53.056;8.690;2023-12-22T05:59:02;6.00;;;1.20;;
13291;SDS011;6714;53.056;8.690;2023-12-22T06:01:44;4.23;;;1.00;;
13291;SDS011;6714;53.056;8.690;2023-12-22T06:04:27;6.23;;;1.73;;
13291;SDS011;6714;53.056;8.690;2023-12-22T06:07:09;6.40;;;1.60;;
13291;SDS011;6714;53.056;8.690;2023-12-22T06:09:52;3.50;;;1.10;;
13291;SDS011;6714;53.056;8.690;2023-12-22T06:12:36;5.87;;;1.60;;
13291;SDS011;6714;53.056;8.690;2023-12-22T06:15:18;7.90;;;1.80;;
13291;SDS011;6714;53.056;8.690;2023-12-22T06:18:01;5.33;;;2.03;;
13291;SDS011;6714;53.056;8.690;2023-12-22T06:20:43;8.33;;;2.27;;
13291;SDS011;6714;53.056;8.690;2023-12-22T06:23:26;6.63;;;1.73;;
13291;SDS011;6714;53.056;8.690;2023-12-22T06:26:08;5.30;;;1.23;;
13291;SDS011;6714;53.056;8.690;2023-12-22T06:28:53;9.53;;;2.50;;
13291;SDS011;6714;53.056;8.690;2023-12-22T06:31:36;6.97;;;1.83;;
13291;SDS011;6714;53.056;8.690;2023-12-22T06:34:18;10.10;;;2.33;;
13291;SDS011;6714;53.056;8.690;2023-12-22T06:37:01;6.23;;;1.83;;
13291;SDS011;6714;53.056;8.690;2023-12-22T06:39:43;7.40;;;2.10;;
13291;SDS011;6714;53.056;8.690;2023-12-22T06:42:26;8.50;;;2.27;;
13291;SDS011;6714;53.056;8.690;2023-12-22T06:45:10;12.43;;;2.47;;
13291;SDS011;6714;53.056;8.690;2023-12-22T06:47:53;5.03;;;1.70;;
13291;SDS011;6714;53.056;8.690;2023-12-22T06:50:35;6.77;;;1.97;;
13291;SDS011;6714;53.056;8.690;2023-12-22T06:53:19;6.30;;;1.87;;
13291;SDS011;6714;53.056;8.690;2023-12-22T06:56:03;9.37;;;2.03;;
13291;SDS011;6714;53.056;8.690;2023-12-22T06:58:56;9.03;;;2.00;;
13291;SDS011;6714;53.056;8.690;2023-12-22T07:01:40;7.20;;;1.70;;
13291;SDS011;6714;53.056;8.690;2023-12-22T07:07:42;7.90;;;2.07;;
13291;SDS011;6714;53.056;8.690;2023-12-22T07:10:24;6.77;;;1.77;;
13291;SDS011;6714;53.056;8.690;2023-12-22T07:13:07;6.40;;;1.77;;
13291;SDS011;6714;53.056;8.690;2023-12-22T07:15:49;8.47;;;2.17;;
13291;SDS011;6714;53.056;8.690;2023-12-22T07:18:33;13.03;;;2.70;;
13291;SDS011;6714;53.056;8.690;2023-12-22T07:21:16;7.90;;;2.17;;
13291;SDS011;6714;53.056;8.690;2023-12-22T07:23:59;10.30;;;2.70;;
13291;SDS011;6714;53.056;8.690;2023-12-22T07:26:42;10.30;;;2.40;;
13291;SDS011;6714;53.056;8.690;2023-12-22T07:29:25;11.03;;;2.90;;
13291;SDS011;6714;53.056;8.690;2023-12-22T07:32:07;12.87;;;2.97;;
13291;SDS011;6714;53.056;8.690;2023-12-22T07:34:51;12.37;;;2.50;;
13291;SDS011;6714;53.056;8.690;2023-12-22T07:37:35;10.20;;;2.33;;
13291;SDS011;6714;53.056;8.690;2023-12-22T07:40:17;12.63;;;3.20;;
13291;SDS011;6714;53.056;8.690;2023-12-22T07:43:00;8.10;;;2.77;;
13291;SDS011;6714;53.056;8.690;2023-12-22T07:45:44;10.33;;;2.67;;
13291;SDS011;6714;53.056;8.690;2023-12-22T07:48:27;15.83;;;3.47;;
13291;SDS011;6714;53.056;8.690;2023-12-22T07:51:11;8.43;;;2.43;;
13291;SDS011;6714;53.056;8.690;2023-12-22T07:53:54;11.33;;;3.10;;
13291;SDS011;6714;53.056;8.690;2023-12-22T07:56:37;13.23;;;3.23;;
13291;SDS011;6714;53.056;8.690;2023-12-22T07:59:22;15.73;;;3.40;;
13291;SDS011;6714;53.056;8.690;2023-12-22T08:02:04;13.53;;;2.93;;
13291;SDS011;6714;53.056;8.690;2023-12-22T08:04:47;10.00;;;3.07;;
13291;SDS011;6714;53.056;8.690;2023-12-22T08:07:31;10.50;;;2.73;;
13291;SDS011;6714;53.056;8.690;2023-12-22T08:10:14;13.70;;;2.80;;
13291;SDS011;6714;53.056;8.690;2023-12-22T08:12:57;12.53;;;3.20;;
13291;SDS011;6714;53.056;8.690;2023-12-22T08:15:40;10.37;;;2.60;;
13291;SDS011;6714;53.056;8.690;2023-12-22T08:18:22;7.53;;;2.13;;
13291;SDS011;6714;53.056;8.690;2023-12-22T08:21:04;13.67;;;3.00;;
13291;SDS011;6714;53.056;8.690;2023-12-22T08:23:50;14.73;;;3.27;;
13291;SDS011;6714;53.056;8.690;2023-12-22T08:26:32;10.00;;;3.10;;
13291;SDS011;6714;53.056;8.690;2023-12-22T08:29:15;12.17;;;2.70;;
13291;SDS011;6714;53.056;8.690;2023-12-22T08:31:59;11.47;;;3.43;;
13291;SDS011;6714;53.056;8.690;2023-12-22T08:34:42;14.83;;;3.20;;
13291;SDS011;6714;53.056;8.690;2023-12-22T08:37:24;12.63;;;3.43;;
13291;SDS011;6714;53.056;8.690;2023-12-22T08:40:09;13.73;;;3.70;;
13291;SDS011;6714;53.056;8.690;2023-12-22T08:42:51;16.70;;;3.83;;
13291;SDS011;6714;53.056;8.690;2023-12-22T08:45:39;18.97;;;3.90;;
13291;SDS011;6714;53.056;8.690;2023-12-22T08:48:21;16.40;;;2.97;;
13291;SDS011;6714;53.056;8.690;2023-12-22T08:51:04;9.43;;;3.17;;
13291;SDS011;6714;53.056;8.690;2023-12-22T08:53:47;16.97;;;3.50;;
13291;SDS011;6714;53.056;8.690;2023-12-22T08:56:31;12.67;;;3.13;;
13291;SDS011;6714;53.056;8.690;2023-12-22T08:59:15;13.53;;;3.00;;
13291;SDS011;6714;53.056;8.690;2023-12-22T09:01:57;14.33;;;3.90;;
13291;SDS011;6714;53.056;8.690;2023-12-22T09:04:40;8.37;;;2.80;;
13291;SDS011;6714;53.056;8.690;2023-12-22T09:07:23;12.73;;;3.03;;
13291;SDS011;6714;53.056;8.690;2023-12-22T09:10:06;10.90;;;2.60;;
13291;SDS011;6714;53.056;8.690;2023-12-22T09:12:50;9.93;;;2.50;;
13291;SDS011;6714;53.056;8.690;2023-12-22T09:15:33;9.60;;;2.30;;
13291;SDS011;6714;53.056;8.690;2023-12-22T09:18:16;8.00;;;2.30;;
13291;SDS011;6714;53.056;8.690;2023-12-22T09:20:58;9.60;;;3.10;;
13291;SDS011;6714;53.056;8.690;2023-12-22T09:23:40;7.37;;;2.30;;
13291;SDS011;6714;53.056;8.690;2023-12-22T09:26:25;7.30;;;2.47;;
13291;SDS011;6714;53.056;8.690;2023-12-22T09:29:09;9.77;;;2.50;;
13291;SDS011;6714;53.056;8.690;2023-12-22T09:31:52;7.57;;;2.37;;
13291;SDS011;6714;53.056;8.690;2023-12-22T09:34:34;10.17;;;2.60;;
13291;SDS011;6714;53.056;8.690;2023-12-22T09:37:16;8.87;;;2.00;;
13291;SDS011;6714;53.056;8.690;2023-12-22T09:39:59;10.77;;;2.40;;
13291;SDS011;6714;53.056;8.690;2023-12-22T09:42:42;7.63;;;2.10;;
13291;SDS011;6714;53.056;8.690;2023-12-22T09:45:26;9.03;;;2.40;;
13291;SDS011;6714;53.056;8.690;2023-12-22T09:48:09;6.40;;;2.33;;
13291;SDS011;6714;53.056;8.690;2023-12-22T09:50:57;9.97;;;2.30;;
13291;SDS011;6714;53.056;8.690;2023-12-22T09:53:40;13.53;;;2.97;;
13291;SDS011;6714;53.056;8.690;2023-12-22T09:56:23;8.40;;;2.40;;
13291;SDS011;6714;53.056;8.690;2023-12-22T09:59:06;5.43;;;1.77;;
13291;SDS011;6714;53.056;8.690;2023-12-22T10:01:50;8.00;;;2.27;;
13291;SDS011;6714;53.056;8.690;2023-12-22T10:04:33;10.07;;;2.00;;
13291;SDS011;6714;53.056;8.690;2023-12-22T10:07:16;8.63;;;2.17;;
13291;SDS011;6714;53.056;8.690;2023-12-22T10:09:59;7.73;;;2.40;;
13291;SDS011;6714;53.056;8.690;2023-12-22T10:12:42;7.20;;;1.90;;
13291;SDS011;6714;53.056;8.690;2023-12-22T10:15:26;8.90;;;2.03;;
13291;SDS011;6714;53.056;8.690;2023-12-22T10:18:11;8.57;;;2.27;;
13291;SDS011;6714;53.056;8.690;2023-12-22T10:20:53;4.60;;;1.57;;
13291;SDS011;6714;53.056;8.690;2023-12-22T10:23:36;6.23;;;1.60;;
13291;SDS011;6714;53.056;8.690;2023-12-22T10:26:18;7.77;;;2.20;;
13291;SDS011;6714;53.056;8.690;2023-12-22T10:29:02;5.77;;;1.70;;
13291;SDS011;6714;53.056;8.690;2023-12-22T10:31:48;5.23;;;1.80;;
13291;SDS011;6714;53.056;8.690;2023-12-22T10:34:33;3.83;;;1.80;;
13291;SDS011;6714;53.056;8.690;2023-12-22T10:37:15;6.00;;;1.67;;
13291;SDS011;6714;53.056;8.690;2023-12-22T10:39:58;4.53;;;1.57;;
13291;SDS011;6714;53.056;8.690;2023-12-22T10:42:40;4.27;;;1.20;;
13291;SDS011;6714;53.056;8.690;2023-12-22T10:45:23;4.70;;;1.57;;
13291;SDS011;6714;53.056;8.690;2023-12-22T10:48:06;4.23;;;1.50;;
13291;SDS011;6714;53.056;8.690;2023-12-22T10:50:52;4.13;;;1.30;;
13291;SDS011;6714;53.056;8.690;2023-12-22T10:53:34;2.07;;;1.07;;
13291;SDS011;6714;53.056;8.690;2023-12-22T10:56:17;4.33;;;1.27;;
13291;SDS011;6714;53.056;8.690;2023-12-22T10:58:59;4.87;;;1.30;;
13291;SDS011;6714;53.056;8.690;2023-12-22T11:01:42;3.83;;;1.50;;
13291;SDS011;6714;53.056;8.690;2023-12-22T11:04:25;4.67;;;1.63;;
13291;SDS011;6714;53.056;8.690;2023-12-22T11:07:12;2.70;;;1.33;;
13291;SDS011;6714;53.056;8.690;2023-12-22T11:09:56;5.77;;;1.73;;
13291;SDS011;6714;53.056;8.690;2023-12-22T11:12:38;4.47;;;1.60;;
13291;SDS011;6714;53.056;8.690;2023-12-22T11:15:21;8.17;;;1.63;;
13291;SDS011;6714;53.056;8.690;2023-12-22T11:18:04;7.53;;;1.70;;
13291;SDS011;6714;53.056;8.690;2023-12-22T11:20:47;3.93;;;1.43;;
13291;SDS011;6714;53.056;8.690;2023-12-22T11:23:32;3.67;;;1.53;;
13291;SDS011;6714;53.056;8.690;2023-12-22T11:26:14;8.27;;;1.60;;
13291;SDS011;6714;53.056;8.690;2023-12-22T11:28:59;9.33;;;2.07;;
13291;SDS011;6714;53.056;8.690;2023-12-22T11:31:41;5.83;;;1.93;;
13291;SDS011;6714;53.056;8.690;2023-12-22T11:34:27;2.97;;;1.40;;
13291;SDS011;6714;53.056;8.690;2023-12-22T11:37:11;7.57;;;2.23;;
13291;SDS011;6714;53.056;8.690;2023-12-22T11:39:55;5.00;;;1.80;;
13291;SDS011;6714;53.056;8.690;2023-12-22T11:42:39;6.27;;;1.90;;
13291;SDS011;6714;53.056;8.690;2023-12-22T11:45:24;6.17;;;2.40;;
13291;SDS011;6714;53.056;8.690;2023-12-22T11:48:08;11.47;;;3.37;;
13291;SDS011;6714;53.056;8.690;2023-12-22T11:50:51;5.73;;;1.87;;
13291;SDS011;6714;53.056;8.690;2023-12-22T11:53:33;6.37;;;1.87;;
13291;SDS011;6714;53.056;8.690;2023-12-22T11:56:18;3.53;;;1.63;;
13291;SDS011;6714;53.056;8.690;2023-12-22T11:59:00;7.60;;;2.33;;
13291;SDS011;6714;53.056;8.690;2023-12-22T12:01:43;4.93;;;2.00;;
13291;SDS011;6714;53.056;8.690;2023-12-22T12:04:25;9.27;;;2.60;;
13291;SDS011;6714;53.056;8.690;2023-12-22T12:10:07;8.97;;;2.87;;
13291;SDS011;6714;53.056;8.690;2023-12-22T12:12:59;12.07;;;3.53;;
13291;SDS011;6714;53.056;8.690;2023-12-22T12:15:46;7.87;;;2.30;;
13291;SDS011;6714;53.056;8.690;2023-12-22T12:18:29;5.43;;;2.07;;
13291;SDS011;6714;53.056;8.690;2023-12-22T12:21:12;8.03;;;2.03;;
13291;SDS011;6714;53.056;8.690;2023-12-22T12:23:55;8.83;;;2.57;;
13291;SDS011;6714;53.056;8.690;2023-12-22T12:26:38;8.87;;;2.60;;
13291;SDS011;6714;53.056;8.690;2023-12-22T12:29:22;6.43;;;2.10;;
13291;SDS011;6714;53.056;8.690;2023-12-22T12:32:05;8.07;;;2.53;;
13291;SDS011;6714;53.056;8.690;2023-12-22T12:34:48;7.27;;;2.07;;
13291;SDS011;6714;53.056;8.690;2023-12-22T12:37:32;6.70;;;2.10;;
13291;SDS011;6714;53.056;8.690;2023-12-22T12:40:16;6.00;;;2.27;;
13291;SDS011;6714;53.056;8.690;2023-12-22T12:43:01;6.60;;;2.10;;
13291;SDS011;6714;53.056;8.690;2023-12-22T12:45:46;8.77;;;2.27;;
13291;SDS011;6714;53.056;8.690;2023-12-22T12:48:28;8.20;;;2.03;;
13291;SDS011;6714;53.056;8.690;2023-12-22T12:51:10;10.73;;;2.87;;
13291;SDS011;6714;53.056;8.690;2023-12-22T12:53:53;7.60;;;2.20;;
13291;SDS011;6714;53.056;8.690;2023-12-22T12:56:36;9.37;;;2.60;;
13291;SDS011;6714;53.056;8.690;2023-12-22T12:59:18;6.00;;;2.10;;
13291;SDS011;6714;53.056;8.690;2023-12-22T13:02:04;7.83;;;2.27;;
13291;SDS011;6714;53.056;8.690;2023-12-22T13:04:46;7.03;;;2.20;;
13291;SDS011;6714;53.056;8.690;2023-12-22T13:07:29;4.30;;;1.90;;
13291;SDS011;6714;53.056;8.690;2023-12-22T13:10:19;6.90;;;2.20;;
13291;SDS011;6714;53.056;8.690;2023-12-22T13:13:02;7.50;;;2.00;;
13291;SDS011;6714;53.056;8.690;2023-12-22T13:15:44;6.03;;;2.10;;
13291;SDS011;6714;53.056;8.690;2023-12-22T13:18:28;6.27;;;2.00;;
13291;SDS011;6714;53.056;8.690;2023-12-22T13:21:11;6.57;;;1.80;;
13291;SDS011;6714;53.056;8.690;2023-12-22T13:24:09;7.33;;;2.33;;
13291;SDS011;6714;53.056;8.690;2023-12-22T13:26:58;5.63;;;1.93;;
13291;SDS011;6714;53.056;8.690;2023-12-22T13:29:42;7.67;;;2.10;;
13291;SDS011;6714;53.056;8.690;2023-12-22T13:32:25;8.20;;;2.47;;
13291;SDS011;6714;53.056;8.690;2023-12-22T13:35:09;6.70;;;2.23;;
13291;SDS011;6714;53.056;8.690;2023-12-22T13:37:52;6.00;;;2.40;;
13291;SDS011;6714;53.056;8.690;2023-12-22T13:40:35;7.10;;;2.67;;
13291;SDS011;6714;53.056;8.690;2023-12-22T13:43:18;5.87;;;1.97;;
13291;SDS011;6714;53.056;8.690;2023-12-22T13:46:00;3.87;;;1.60;;
13291;SDS011;6714;53.056;8.690;2023-12-22T13:48:43;7.93;;;2.27;;
13291;SDS011;6714;53.056;8.690;2023-12-22T13:51:28;7.17;;;2.50;;
13291;SDS011;6714;53.056;8.690;2023-12-22T13:54:20;8.43;;;2.40;;
13291;SDS011;6714;53.056;8.690;2023-12-22T13:57:02;9.30;;;2.20;;
13291;SDS011;6714;53.056;8.690;2023-12-22T13:59:45;12.70;;;2.70;;
13291;SDS011;6714;53.056;8.690;2023-12-22T14:02:27;7.93;;;2.13;;
13291;SDS011;6714;53.056;8.690;2023-12-22T14:05:09;5.90;;;1.80;;
13291;SDS011;6714;53.056;8.690;2023-12-22T14:07:54;5.80;;;1.93;;
13291;SDS011;6714;53.056;8.690;2023-12-22T14:10:36;7.83;;;2.23;;
13291;SDS011;6714;53.056;8.690;2023-12-22T14:13:19;5.13;;;1.67;;
13291;SDS011;6714;53.056;8.690;2023-12-22T14:16:01;4.10;;;1.73;;
13291;SDS011;6714;53.056;8.690;2023-12-22T14:18:44;4.30;;;1.50;;
13291;SDS011;6714;53.056;8.690;2023-12-22T14:21:26;3.90;;;1.57;;
13291;SDS011;6714;53.056;8.690;2023-12-22T14:24:10;4.47;;;1.23;;
13291;SDS011;6714;53.056;8.690;2023-12-22T14:26:53;4.27;;;1.00;;
13291;SDS011;6714;53.056;8.690;2023-12-22T14:29:37;3.07;;;1.30;;
13291;SDS011;6714;53.056;8.690;2023-12-22T14:32:21;3.67;;;1.30;;
13291;SDS011;6714;53.056;8.690;2023-12-22T14:35:03;4.33;;;1.30;;
13291;SDS011;6714;53.056;8.690;2023-12-22T14:37:46;2.47;;;1.43;;
13291;SDS011;6714;53.056;8.690;2023-12-22T14:40:30;2.40;;;1.20;;
13291;SDS011;6714;53.056;8.690;2023-12-22T14:43:13;4.33;;;1.10;;
13291;SDS011;6714;53.056;8.690;2023-12-22T14:45:55;2.77;;;1.37;;
13291;SDS011;6714;53.056;8.690;2023-12-22T14:48:38;5.07;;;1.27;;
13291;SDS011;6714;53.056;8.690;2023-12-22T14:51:20;3.40;;;1.37;;
13291;SDS011;6714;53.056;8.690;2023-12-22T14:54:03;2.73;;;0.90;;
13291;SDS011;6714;53.056;8.690;2023-12-22T14:56:47;4.77;;;1.20;;
13291;SDS011;6714;53.056;8.690;2023-12-22T14:59:30;2.70;;;1.00;;
13291;SDS011;6714;53.056;8.690;2023-12-22T15:02:13;3.83;;;0.80;;
13291;SDS011;6714;53.056;8.690;2023-12-22T15:04:55;1.67;;;0.97;;
13291;SDS011;6714;53.056;8.690;2023-12-22T15:07:37;0.93;;;0.73;;
13291;SDS011;6714;53.056;8.690;2023-12-22T15:10:20;2.97;;;1.00;;
13291;SDS011;6714;53.056;8.690;2023-12-22T15:13:04;3.07;;;1.20;;
13291;SDS011;6714;53.056;8.690;2023-12-22T15:15:46;3.47;;;1.10;;
13291;SDS011;6714;53.056;8.690;2023-12-22T15:18:29;2.60;;;1.10;;
13291;SDS011;6714;53.056;8.690;2023-12-22T15:21:18;4.17;;;1.07;;
13291;SDS011;6714;53.056;8.690;2023-12-22T15:24:02;2.20;;;1.10;;
13291;SDS011;6714;53.056;8.690;2023-12-22T15:26:44;2.80;;;1.20;;
13291;SDS011;6714;53.056;8.690;2023-12-22T15:29:29;2.23;;;1.40;;
13291;SDS011;6714;53.056;8.690;2023-12-22T15:32:12;2.20;;;1.00;;
13291;SDS011;6714;53.056;8.690;2023-12-22T15:34:55;1.50;;;1.00;;
13291;SDS011;6714;53.056;8.690;2023-12-22T15:37:37;3.60;;;1.53;;
13291;SDS011;6714;53.056;8.690;2023-12-22T15:40:21;1.60;;;1.00;;
13291;SDS011;6714;53.056;8.690;2023-12-22T15:43:04;2.73;;;1.13;;
13291;SDS011;6714;53.056;8.690;2023-12-22T15:45:49;3.13;;;1.37;;
13291;SDS011;6714;53.056;8.690;2023-12-22T15:48:32;1.80;;;1.30;;
13291;SDS011;6714;53.056;8.690;2023-12-22T15:51:15;3.00;;;1.43;;
13291;SDS011;6714;53.056;8.690;2023-12-22T15:53:57;2.27;;;1.20;;
13291;SDS011;6714;53.056;8.690;2023-12-22T15:56:40;1.70;;;1.10;;
13291;SDS011;6714;53.056;8.690;2023-12-22T15:59:22;5.17;;;1.57;;
13291;SDS011;6714;53.056;8.690;2023-12-22T16:02:07;2.33;;;1.30;;
13291;SDS011;6714;53.056;8.690;2023-12-22T16:04:50;0.80;;;0.80;;
13291;SDS011;6714;53.056;8.690;2023-12-22T16:07:32;1.43;;;1.10;;
13291;SDS011;6714;53.056;8.690;2023-12-22T16:10:15;1.23;;;1.07;;
13291;SDS011;6714;53.056;8.690;2023-12-22T16:12:58;2.50;;;0.90;;
13291;SDS011;6714;53.056;8.690;2023-12-22T16:15:41;3.77;;;1.30;;
13291;SDS011;6714;53.056;8.690;2023-12-22T16:18:25;2.13;;;1.43;;
13291;SDS011;6714;53.056;8.690;2023-12-22T16:21:07;1.93;;;1.10;;
13291;SDS011;6714;53.056;8.690;2023-12-22T16:23:50;1.77;;;0.90;;
13291;SDS011;6714;53.056;8.690;2023-12-22T16:26:32;1.17;;;1.10;;
13291;SDS011;6714;53.056;8.690;2023-12-22T16:29:15;3.53;;;1.20;;
13291;SDS011;6714;53.056;8.690;2023-12-22T16:31:57;1.77;;;1.10;;
13291;SDS011;6714;53.056;8.690;2023-12-22T16:34:43;1.47;;;0.90;;
13291;SDS011;6714;53.056;8.690;2023-12-22T16:37:25;3.90;;;1.17;;
13291;SDS011;6714;53.056;8.690;2023-12-22T16:40:08;2.93;;;1.43;;
13291;SDS011;6714;53.056;8.690;2023-12-22T16:42:52;2.00;;;1.20;;